createdAt,value
2016-11-02T00:00:34.020Z,748.18
2016-11-02T00:01:33.969Z,748.03
2016-11-02T00:02:33.940Z,747.5
2016-11-02T00:03:34.089Z,747.51
2016-11-02T00:04:33.950Z,747.52
2016-11-02T00:05:33.986Z,747.52
2016-11-02T00:06:34.041Z,747.5
2016-11-02T00:07:33.954Z,746.99
2016-11-02T00:08:36.207Z,747.16
2016-11-02T00:09:33.959Z,746.69
2016-11-02T00:10:33.932Z,746.02
2016-11-02T00:11:33.935Z,745.67
2016-11-02T00:12:33.944Z,745.01
2016-11-02T00:13:33.933Z,744.82
2016-11-02T00:14:33.971Z,745.33
2016-11-02T00:15:33.936Z,743.87
2016-11-02T00:16:33.955Z,744.17
2016-11-02T00:17:34.131Z,744.21
2016-11-02T00:18:33.941Z,743.52
2016-11-02T00:19:33.965Z,743.5
2016-11-02T00:20:33.930Z,742.39
2016-11-02T00:21:33.949Z,743.09
2016-11-02T00:22:33.930Z,742.55
2016-11-02T00:23:33.936Z,741.17
2016-11-02T00:24:33.964Z,741.42
2016-11-02T00:25:33.951Z,741.09
2016-11-02T00:26:33.929Z,740.4
2016-11-02T00:27:33.964Z,740.22
2016-11-02T00:28:33.935Z,739.55
2016-11-02T00:29:33.970Z,738.75
2016-11-02T00:30:33.936Z,738.44
2016-11-02T00:31:33.943Z,737.44
2016-11-02T00:32:33.940Z,736.95
2016-11-02T00:33:33.954Z,736.4
2016-11-02T00:34:33.959Z,736.25
2016-11-02T00:35:33.930Z,735.08
2016-11-02T00:36:33.964Z,735.11
2016-11-02T00:37:33.969Z,734.91
2016-11-02T00:38:33.958Z,734.09
2016-11-02T00:39:33.985Z,733.91
2016-11-02T00:40:33.949Z,733.09
2016-11-02T00:45:01.228Z,730.94
2016-11-02T00:46:01.267Z,730.72
2016-11-02T00:47:01.246Z,730.72
2016-11-02T00:48:01.254Z,730.76
2016-11-02T00:49:01.223Z,730.38
2016-11-02T00:50:01.242Z,730.37
2016-11-02T00:51:01.231Z,730.89
2016-11-02T00:52:01.230Z,730.22
2016-11-02T00:53:01.262Z,731.05
2016-11-02T00:54:01.255Z,730.73
2016-11-02T00:55:01.728Z,730.68
2016-11-02T00:56:01.240Z,730.38
2016-11-02T00:57:01.247Z,730.04
2016-11-02T00:58:01.237Z,730.07
2016-11-02T00:59:01.336Z,729.54
2016-11-02T01:00:01.291Z,728.52
2016-11-02T01:01:01.226Z,728.81
2016-11-02T01:02:01.236Z,728.5
2016-11-02T01:03:01.240Z,727.87
2016-11-02T01:04:01.246Z,727.68
2016-11-02T01:05:01.273Z,726.97
2016-11-02T01:06:01.248Z,727.59
2016-11-02T01:07:02.026Z,727.73
2016-11-02T01:08:01.241Z,727.22
2016-11-02T01:09:01.235Z,726.55
2016-11-02T01:10:01.270Z,726.38
2016-11-02T01:11:01.249Z,726.79
2016-11-02T01:12:01.236Z,726.29
2016-11-02T01:13:01.294Z,725.98
2016-11-02T01:14:01.250Z,724.57
2016-11-02T01:15:01.263Z,725.22
2016-11-02T01:16:01.246Z,724.87
2016-11-02T01:17:01.235Z,724.72
2016-11-02T01:18:01.260Z,724.41
2016-11-02T01:19:01.264Z,722.83
2016-11-02T01:20:01.359Z,722.98
2016-11-02T01:21:01.248Z,721.6
2016-11-02T01:22:01.241Z,721.78
2016-11-02T01:23:01.258Z,721.12
2016-11-02T01:24:01.254Z,720.61
2016-11-02T01:25:01.254Z,720.46
2016-11-02T01:26:01.251Z,718.88
2016-11-02T01:27:01.259Z,719.25
2016-11-02T01:28:01.265Z,718.55
2016-11-02T01:29:01.264Z,717.75
2016-11-02T01:30:01.942Z,717.19
2016-11-02T01:31:01.249Z,716.84
2016-11-02T01:32:01.245Z,716.44
2016-11-02T01:33:01.256Z,717.33
2016-11-02T01:34:01.280Z,717.49
2016-11-02T01:35:01.266Z,717.13
2016-11-02T01:36:01.261Z,716.13
2016-11-02T01:37:01.267Z,716.14
2016-11-02T01:38:01.247Z,716.13
2016-11-02T01:39:01.264Z,715.59
2016-11-02T01:40:01.271Z,715.95
2016-11-02T01:41:01.256Z,715.76
2016-11-02T01:42:01.284Z,715.58
2016-11-02T01:43:01.274Z,715.5
2016-11-02T01:44:01.263Z,715.7
2016-11-02T01:45:01.268Z,716.23
2016-11-02T01:46:01.265Z,715.58
2016-11-02T01:47:01.283Z,715.58
2016-11-02T01:48:01.287Z,715.91
2016-11-02T01:49:01.279Z,716.59
2016-11-02T01:50:01.273Z,715.59
2016-11-02T01:51:01.283Z,715.85
2016-11-02T01:52:01.252Z,716.54
2016-11-02T01:53:01.266Z,716.36
2016-11-02T01:54:01.274Z,716.02
2016-11-02T01:55:01.268Z,716.39
2016-11-02T01:56:01.274Z,716.17
2016-11-02T01:57:01.255Z,716.47
2016-11-02T01:58:01.275Z,716.2
2016-11-02T01:59:01.284Z,716.01
2016-11-02T02:00:01.260Z,716.16
2016-11-02T02:01:01.284Z,716.03
2016-11-02T02:02:01.288Z,715.68
2016-11-02T02:03:01.278Z,714.3
2016-11-02T02:04:01.269Z,713.75
2016-11-02T02:05:01.296Z,713.93
2016-11-02T02:06:01.300Z,713.39
2016-11-02T02:07:01.304Z,713.23
2016-11-02T02:08:01.289Z,712.76
2016-11-02T02:09:01.296Z,711.69
2016-11-02T02:10:01.293Z,711.91
2016-11-02T02:11:01.294Z,711.02
2016-11-02T02:12:01.282Z,711.03
2016-11-02T02:13:01.298Z,710.3
2016-11-02T02:14:01.284Z,710.86
2016-11-02T02:15:01.288Z,710
2016-11-02T02:16:01.280Z,709.53
2016-11-02T02:17:01.274Z,708.68
2016-11-02T02:18:01.304Z,708.98
2016-11-02T02:19:01.302Z,707.86
2016-11-02T02:20:01.308Z,707.36
2016-11-02T02:21:01.299Z,707.74
2016-11-02T02:22:01.282Z,707.39
2016-11-02T02:23:01.286Z,707.2
2016-11-02T02:24:01.280Z,707.56
2016-11-02T02:25:01.287Z,708.24
2016-11-02T02:26:01.294Z,707.4
2016-11-02T02:27:01.300Z,706.78
2016-11-02T02:28:01.293Z,706.98
2016-11-02T02:29:01.314Z,706.61
2016-11-02T02:30:01.299Z,706.28
2016-11-02T02:31:01.298Z,705.88
2016-11-02T02:32:01.293Z,706.12
2016-11-02T02:33:01.298Z,706.4
2016-11-02T02:34:01.283Z,706.06
2016-11-02T02:35:01.297Z,705.88
2016-11-02T02:36:01.313Z,705.68
2016-11-02T02:37:01.303Z,705.7
2016-11-02T02:38:01.310Z,706.02
2016-11-02T02:39:01.293Z,705.34
2016-11-02T02:40:01.303Z,705.72
2016-11-02T02:41:01.316Z,705.69
2016-11-02T02:42:01.313Z,705.75
2016-11-02T02:43:01.310Z,705.26
2016-11-02T02:44:01.316Z,705.84
2016-11-02T02:45:01.305Z,706.03
2016-11-02T02:46:01.314Z,705.83
2016-11-02T02:47:01.313Z,706
2016-11-02T02:48:01.312Z,705.85
2016-11-02T02:49:01.328Z,706.15
2016-11-02T02:50:01.321Z,705.96
2016-11-02T02:51:01.309Z,706.45
2016-11-02T02:52:01.314Z,705.81
2016-11-02T02:53:01.313Z,705.42
2016-11-02T02:54:01.318Z,705.41
2016-11-02T02:55:01.302Z,704.89
2016-11-02T02:56:01.318Z,704.74
2016-11-02T02:57:01.305Z,704.54
2016-11-02T02:58:01.322Z,705.59
2016-11-02T02:59:01.316Z,704.91
2016-11-02T03:00:01.321Z,704.93
2016-11-02T03:01:01.317Z,705.25
2016-11-02T03:02:01.318Z,705.6
2016-11-02T03:03:01.325Z,705.35
2016-11-02T03:04:01.340Z,705.08
2016-11-02T03:05:01.317Z,705.78
2016-11-02T03:06:01.331Z,704.66
2016-11-02T03:07:01.313Z,705.18
2016-11-02T03:08:01.350Z,705.51
2016-11-02T03:09:01.327Z,704.5
2016-11-02T03:10:01.327Z,705.03
2016-11-02T03:11:01.315Z,704.84
2016-11-02T03:12:01.321Z,705.01
2016-11-02T03:13:01.321Z,705.84
2016-11-02T03:14:01.319Z,707.2
2016-11-02T03:15:01.318Z,707.74
2016-11-02T03:16:01.334Z,709.57
2016-11-02T03:17:01.340Z,711.1
2016-11-02T03:18:01.334Z,713.11
2016-11-02T03:19:01.328Z,715.27
2016-11-02T03:20:01.345Z,716.56
2016-11-02T03:21:01.326Z,718.4
2016-11-02T03:22:02.038Z,720.07
2016-11-02T03:23:01.336Z,721.22
2016-11-02T03:24:01.334Z,722.06
2016-11-02T03:25:01.326Z,723.41
2016-11-02T03:26:01.344Z,723.21
2016-11-02T03:27:01.352Z,723.41
2016-11-02T03:28:01.341Z,723.25
2016-11-02T03:29:01.334Z,723.03
2016-11-02T03:30:01.329Z,721.69
2016-11-02T03:31:01.347Z,721.83
2016-11-02T03:32:01.343Z,721.12
2016-11-02T03:33:01.349Z,721.65
2016-11-02T03:34:01.341Z,719.92
2016-11-02T03:35:01.348Z,719.72
2016-11-02T03:36:01.340Z,718.73
2016-11-02T03:37:01.346Z,719.06
2016-11-02T03:38:01.352Z,718.23
2016-11-02T03:39:01.346Z,718.05
2016-11-02T03:40:01.338Z,716.82
2016-11-02T03:41:01.364Z,716.89
2016-11-02T03:42:01.364Z,715.63
2016-11-02T03:43:01.360Z,716.3
2016-11-02T03:44:01.344Z,716.8
2016-11-02T03:45:01.337Z,717.23
2016-11-02T03:46:01.359Z,717.39
2016-11-02T03:47:01.351Z,717.49
2016-11-02T03:48:01.364Z,718.49
2016-11-02T03:49:01.358Z,719.15
2016-11-02T03:50:01.350Z,719.5
2016-11-02T03:51:01.352Z,720.36
2016-11-02T03:52:01.345Z,720.83
2016-11-02T03:53:01.377Z,720.84
2016-11-02T03:54:01.382Z,720.35
2016-11-02T03:55:01.363Z,720.66
2016-11-02T03:56:01.355Z,719.98
2016-11-02T03:57:01.372Z,719.62
2016-11-02T03:58:01.364Z,718.81
2016-11-02T03:59:01.375Z,718.62
2016-11-02T04:00:01.364Z,717.93
2016-11-02T04:01:01.355Z,717.98
2016-11-02T04:02:01.360Z,717.65
2016-11-02T04:03:01.366Z,716.97
2016-11-02T04:04:01.366Z,716.58
2016-11-02T04:05:01.365Z,716.94
2016-11-02T04:06:01.360Z,716.95
2016-11-02T04:07:01.360Z,716.16
2016-11-02T04:08:01.367Z,715.95
2016-11-02T04:09:01.384Z,715.23
2016-11-02T04:10:01.365Z,715.13
2016-11-02T04:11:01.647Z,714.29
2016-11-02T04:12:01.365Z,713.96
2016-11-02T04:13:01.368Z,713.06
2016-11-02T04:14:01.363Z,713.25
2016-11-02T04:15:01.371Z,712.21
2016-11-02T04:16:01.363Z,712.37
2016-11-02T04:17:01.385Z,711.87
2016-11-02T04:18:01.359Z,710.87
2016-11-02T04:19:01.368Z,710.71
2016-11-02T04:20:01.370Z,709.69
2016-11-02T04:21:01.365Z,710.23
2016-11-02T04:22:01.403Z,709.9
2016-11-02T04:23:01.387Z,709.84
2016-11-02T04:24:01.375Z,708.98
2016-11-02T04:25:01.385Z,709.13
2016-11-02T04:26:01.388Z,708.98
2016-11-02T04:27:01.381Z,710.62
2016-11-02T04:28:01.398Z,711.61
2016-11-02T04:29:01.382Z,712.43
2016-11-02T04:30:01.373Z,713.64
2016-11-02T04:31:01.387Z,715
2016-11-02T04:32:01.380Z,717.55
2016-11-02T04:33:01.379Z,719.43
2016-11-02T04:34:01.395Z,720.74
2016-11-02T04:35:01.388Z,722.93
2016-11-02T04:36:01.395Z,725.05
2016-11-02T04:37:01.388Z,727.49
2016-11-02T04:38:01.411Z,729.87
2016-11-02T04:39:01.390Z,731.69
2016-11-02T04:40:01.400Z,733.32
2016-11-02T04:41:01.390Z,733.93
2016-11-02T04:42:01.394Z,735.58
2016-11-02T04:43:01.413Z,736.22
2016-11-02T04:44:01.401Z,736.58
2016-11-02T04:45:01.393Z,737.23
2016-11-02T04:46:01.398Z,737.04
2016-11-02T04:47:01.406Z,738.16
2016-11-02T04:48:01.395Z,738.47
2016-11-02T04:49:01.432Z,739.68
2016-11-02T04:50:01.397Z,740.44
2016-11-02T04:51:01.398Z,741.59
2016-11-02T04:52:01.400Z,743.21
2016-11-02T04:53:01.392Z,744.14
2016-11-02T04:54:01.390Z,745.61
2016-11-02T04:55:01.407Z,746.41
2016-11-02T04:56:01.401Z,747.71
2016-11-02T04:57:01.419Z,749.27
2016-11-02T04:58:01.417Z,749.59
2016-11-02T04:59:01.417Z,750.94
2016-11-02T05:00:01.430Z,751.22
2016-11-02T05:01:01.448Z,751.23
2016-11-02T05:02:01.424Z,751.35
2016-11-02T05:03:01.396Z,751.23
2016-11-02T05:04:01.413Z,751.5
2016-11-02T05:05:01.410Z,751.84
2016-11-02T05:06:01.417Z,752.42
2016-11-02T05:07:01.402Z,752.72
2016-11-02T05:08:01.406Z,753.19
2016-11-02T05:09:01.439Z,754.5
2016-11-02T05:10:01.407Z,755.4
2016-11-02T05:11:01.413Z,756.7
2016-11-02T05:12:01.416Z,757.75
2016-11-02T05:13:01.439Z,758.82
2016-11-02T05:14:01.421Z,760.13
2016-11-02T05:15:01.452Z,761.46
2016-11-02T05:16:01.419Z,762.1
2016-11-02T05:17:01.423Z,763.4
2016-11-02T05:18:01.430Z,764.38
2016-11-02T05:19:01.419Z,765.05
2016-11-02T05:20:01.435Z,765.84
2016-11-02T05:21:01.423Z,766.8
2016-11-02T05:22:01.426Z,767.1
2016-11-02T05:23:01.500Z,768.38
2016-11-02T05:24:01.454Z,769.96
2016-11-02T05:25:01.444Z,770.13
2016-11-02T05:26:01.553Z,772.08
2016-11-02T05:27:01.480Z,772.43
2016-11-02T05:28:01.423Z,772.68
2016-11-02T05:29:01.445Z,773.54
2016-11-02T05:30:01.440Z,774.15
2016-11-02T05:31:01.416Z,774.95
2016-11-02T05:32:01.443Z,775.44
2016-11-02T05:33:01.447Z,776.22
2016-11-02T05:34:01.420Z,777.05
2016-11-02T05:35:01.498Z,777.47
2016-11-02T05:36:01.439Z,778.27
2016-11-02T05:37:01.483Z,779.24
2016-11-02T05:38:01.554Z,779.49
2016-11-02T05:39:01.438Z,780.41
2016-11-02T05:40:01.446Z,780.55
2016-11-02T05:41:01.444Z,781.37
2016-11-02T05:42:01.446Z,781.82
2016-11-02T05:43:01.461Z,782.61
2016-11-02T05:44:02.017Z,783.08
2016-11-02T05:45:01.448Z,783.34
2016-11-02T05:46:01.470Z,783.87
2016-11-02T05:47:01.461Z,785.01
2016-11-02T05:48:01.480Z,785.13
2016-11-02T05:49:01.451Z,785.44
2016-11-02T05:50:01.442Z,786.13
2016-11-02T05:51:01.465Z,786.52
2016-11-02T05:52:01.457Z,787.09
2016-11-02T05:53:01.484Z,787.9
2016-11-02T05:54:01.454Z,788.88
2016-11-02T05:55:01.460Z,789.72
2016-11-02T05:56:01.524Z,790.17
2016-11-02T05:57:01.456Z,790.34
2016-11-02T05:58:01.459Z,790.92
2016-11-02T05:59:01.448Z,791.29
2016-11-02T06:00:01.452Z,791.67
2016-11-02T06:01:01.452Z,790.84
2016-11-02T06:02:01.480Z,791.99
2016-11-02T06:03:01.461Z,791.04
2016-11-02T06:04:01.459Z,791.12
2016-11-02T06:05:01.476Z,790.12
2016-11-02T06:06:01.480Z,790.37
2016-11-02T06:07:01.458Z,790.48
2016-11-02T06:08:01.465Z,789.22
2016-11-02T06:09:02.088Z,788.61
2016-11-02T06:10:01.449Z,788.26
2016-11-02T06:11:01.480Z,787.28
2016-11-02T06:12:01.451Z,786.75
2016-11-02T06:13:01.446Z,786.41
2016-11-02T06:14:01.450Z,785.64
2016-11-02T06:15:01.460Z,784.54
2016-11-02T06:16:01.465Z,784.72
2016-11-02T06:17:01.468Z,784.19
2016-11-02T06:18:01.463Z,784.56
2016-11-02T06:19:02.037Z,784.69
2016-11-02T06:20:01.473Z,784.03
2016-11-02T06:21:01.550Z,784.7
2016-11-02T06:22:01.480Z,784.51
2016-11-02T06:23:01.466Z,784.89
2016-11-02T06:24:01.482Z,784.28
2016-11-02T06:25:01.463Z,783.94
2016-11-02T06:26:01.476Z,784.43
2016-11-02T06:27:01.515Z,783.8
2016-11-02T06:28:01.476Z,783.26
2016-11-02T06:29:01.485Z,782.78
2016-11-02T06:30:01.503Z,782.95
2016-11-02T06:31:01.467Z,782.92
2016-11-02T06:32:01.634Z,782.14
2016-11-02T06:33:01.467Z,781.2
2016-11-02T06:34:01.469Z,780.13
2016-11-02T06:35:01.492Z,779.55
2016-11-02T06:36:01.495Z,779.43
2016-11-02T06:37:01.768Z,778.77
2016-11-02T06:38:01.989Z,778.29
2016-11-02T06:39:01.517Z,777.68
2016-11-02T06:40:01.489Z,777.55
2016-11-02T06:41:01.514Z,777.58
2016-11-02T06:42:01.485Z,777.3
2016-11-02T06:43:01.501Z,776.82
2016-11-02T06:44:01.862Z,777.43
2016-11-02T06:45:01.514Z,777.32
2016-11-02T06:46:01.523Z,777.63
2016-11-02T06:47:01.480Z,777.95
2016-11-02T06:48:01.469Z,778
2016-11-02T06:49:01.501Z,778.64
2016-11-02T06:50:01.469Z,779.25
2016-11-02T06:51:01.489Z,779.89
2016-11-02T06:52:01.479Z,781.55
2016-11-02T06:53:01.473Z,783.3
2016-11-02T06:54:01.476Z,784.84
2016-11-02T06:55:01.497Z,787.07
2016-11-02T06:56:01.510Z,789.14
2016-11-02T06:57:01.494Z,790.41
2016-11-02T06:58:01.487Z,792.69
2016-11-02T06:59:01.826Z,795.26
2016-11-02T07:00:02.876Z,797.39
2016-11-02T07:01:01.891Z,799.84
2016-11-02T07:02:01.497Z,801.22
2016-11-02T07:03:01.502Z,802.82
2016-11-02T07:04:01.501Z,804.38
2016-11-02T07:05:01.534Z,805.44
2016-11-02T07:06:01.517Z,806.25
2016-11-02T07:07:01.487Z,806.66
2016-11-02T07:08:02.426Z,807.3
2016-11-02T07:09:01.502Z,807.74
2016-11-02T07:10:01.526Z,808.96
2016-11-02T07:11:01.527Z,809.9
2016-11-02T07:12:01.504Z,810.91
2016-11-02T07:13:01.510Z,811.36
2016-11-02T07:14:01.497Z,812.64
2016-11-02T07:15:01.541Z,813.26
2016-11-02T07:16:01.529Z,814.15
2016-11-02T07:17:01.521Z,815.33
2016-11-02T07:18:01.533Z,816.86
2016-11-02T07:19:01.515Z,817.54
2016-11-02T07:20:01.536Z,818.79
2016-11-02T07:21:01.543Z,819.46
2016-11-02T07:22:01.511Z,820.81
2016-11-02T07:23:01.520Z,822.31
2016-11-02T07:24:01.504Z,823.95
2016-11-02T07:25:01.508Z,825.75
2016-11-02T07:26:01.526Z,828.54
2016-11-02T07:27:01.501Z,830.54
2016-11-02T07:28:01.512Z,834.34
2016-11-02T07:29:01.507Z,836.93
2016-11-02T07:30:01.521Z,838.44
2016-11-02T07:31:01.523Z,841.43
2016-11-02T07:32:01.534Z,844.27
2016-11-02T07:33:01.512Z,846.95
2016-11-02T07:34:01.542Z,849.94
2016-11-02T07:35:01.536Z,852.79
2016-11-02T07:36:01.552Z,855.71
2016-11-02T07:37:01.533Z,858.5
2016-11-02T07:38:01.552Z,861.68
2016-11-02T07:39:01.529Z,864.6
2016-11-02T07:40:01.597Z,868.29
2016-11-02T07:41:01.541Z,871.5
2016-11-02T07:42:01.564Z,874.35
2016-11-02T07:43:01.533Z,877.06
2016-11-02T07:44:01.559Z,880.76
2016-11-02T07:45:01.537Z,883.47
2016-11-02T07:46:01.536Z,884.94
2016-11-02T07:47:01.536Z,885.12
2016-11-02T07:48:01.552Z,883.98
2016-11-02T07:49:01.539Z,882.15
2016-11-02T07:50:01.628Z,879.59
2016-11-02T07:51:01.555Z,875.47
2016-11-02T07:52:01.558Z,871.62
2016-11-02T07:53:01.598Z,868.75
2016-11-02T07:54:01.744Z,867.94
2016-11-02T07:55:01.546Z,868.08
2016-11-02T07:56:05.217Z,868.6
2016-11-02T07:57:01.524Z,870.18
2016-11-02T07:58:01.558Z,867.27
2016-11-02T07:59:01.548Z,868.02
2016-11-02T08:00:01.643Z,866.07
2016-11-02T08:01:01.560Z,864.93
2016-11-02T08:02:01.530Z,863.62
2016-11-02T08:03:01.542Z,862.53
2016-11-02T08:04:01.702Z,860.57
2016-11-02T08:05:01.607Z,860.64
2016-11-02T08:06:01.569Z,859.03
2016-11-02T08:07:01.541Z,858.62
2016-11-02T08:08:01.582Z,858.39
2016-11-02T08:09:01.589Z,856.69
2016-11-02T08:10:01.546Z,855.49
2016-11-02T08:11:01.619Z,853.61
2016-11-02T08:12:01.534Z,852
2016-11-02T08:13:01.571Z,849.67
2016-11-02T08:14:01.565Z,848.71
2016-11-02T08:15:01.555Z,847.74
2016-11-02T08:16:01.586Z,846.34
2016-11-02T08:17:01.555Z,844.68
2016-11-02T08:18:01.579Z,843.57
2016-11-02T08:19:01.565Z,842.25
2016-11-02T08:20:01.549Z,840.4
2016-11-02T08:21:01.642Z,838.76
2016-11-02T08:22:01.574Z,837.76
2016-11-02T08:23:06.174Z,836.46
2016-11-02T08:24:01.621Z,836.87
2016-11-02T08:25:01.589Z,836.95
2016-11-02T08:26:03.565Z,836.7
2016-11-02T08:27:01.639Z,837.77
2016-11-02T08:28:01.578Z,838.25
2016-11-02T08:29:01.613Z,839.23
2016-11-02T08:30:01.607Z,840.58
2016-11-02T08:31:01.659Z,842.18
2016-11-02T08:32:01.597Z,843.44
2016-11-02T08:33:01.555Z,843.98
2016-11-02T08:34:01.684Z,846.99
2016-11-02T08:35:01.631Z,850.16
2016-11-02T08:36:02.163Z,852.78
2016-11-02T08:37:01.554Z,856.12
2016-11-02T08:38:01.606Z,857.9
2016-11-02T08:39:01.591Z,860.13
2016-11-02T08:40:01.590Z,862.56
2016-11-02T08:41:01.622Z,864.51
2016-11-02T08:42:01.560Z,867.38
2016-11-02T08:43:01.557Z,870.68
2016-11-02T08:44:01.556Z,876.26
2016-11-02T08:45:01.571Z,883.96
2016-11-02T08:46:01.632Z,890.09
2016-11-02T08:47:01.580Z,896
2016-11-02T08:48:01.584Z,902.07
2016-11-02T08:49:01.588Z,906.23
2016-11-02T08:50:01.588Z,910.01
2016-11-02T08:51:01.595Z,913.82
2016-11-02T08:52:01.597Z,916.73
2016-11-02T08:53:01.581Z,918.72
2016-11-02T08:54:01.594Z,919.65
2016-11-02T08:55:01.588Z,922.54
2016-11-02T08:56:01.610Z,926.9
2016-11-02T08:57:01.593Z,931.94
2016-11-02T08:58:01.584Z,935.73
2016-11-02T08:59:01.573Z,941.31
2016-11-02T09:00:02.179Z,944.96
2016-11-02T09:01:01.621Z,949.08
2016-11-02T09:02:01.590Z,954.16
2016-11-02T09:03:01.615Z,959.79
2016-11-02T09:04:01.631Z,962.53
2016-11-02T09:05:01.626Z,962.99
2016-11-02T09:06:01.595Z,962.36
2016-11-02T09:07:01.645Z,961.51
2016-11-02T09:08:01.634Z,961.09
2016-11-02T09:09:01.612Z,961.97
2016-11-02T09:10:02.111Z,962.03
2016-11-02T09:11:01.641Z,961.68
2016-11-02T09:12:01.603Z,961.06
2016-11-02T09:13:01.602Z,962.05
2016-11-02T09:14:01.624Z,964.54
2016-11-02T09:15:01.614Z,967.7
2016-11-02T09:16:02.604Z,970.15
2016-11-02T09:17:01.615Z,973.75
2016-11-02T09:18:01.599Z,977.39
2016-11-02T09:19:01.587Z,978.57
2016-11-02T09:20:01.608Z,979.71
2016-11-02T09:21:01.662Z,981.57
2016-11-02T09:22:01.689Z,984.62
2016-11-02T09:23:01.627Z,987.61
2016-11-02T09:24:01.625Z,989.37
2016-11-02T09:25:01.617Z,989.93
2016-11-02T09:26:01.657Z,990.52
2016-11-02T09:27:01.612Z,988.32
2016-11-02T09:28:01.609Z,984.64
2016-11-02T09:29:01.631Z,981.85
2016-11-02T09:30:01.621Z,978.97
2016-11-02T09:31:01.645Z,976.09
2016-11-02T09:32:01.619Z,972.65
2016-11-02T09:33:01.641Z,969.21
2016-11-02T09:34:01.635Z,965.5
2016-11-02T09:35:01.610Z,962.97
2016-11-02T09:36:01.696Z,960.54
2016-11-02T09:37:01.615Z,957.68
2016-11-02T09:38:01.618Z,955.37
2016-11-02T09:39:01.633Z,952.93
2016-11-02T09:40:01.656Z,951.04
2016-11-02T09:41:01.643Z,948.96
2016-11-02T09:42:01.650Z,947.72
2016-11-02T09:43:01.656Z,947.75
2016-11-02T09:44:01.631Z,947.2
2016-11-02T09:45:01.672Z,946.4
2016-11-02T09:46:01.660Z,946.15
2016-11-02T09:47:01.647Z,945.18
2016-11-02T09:48:01.645Z,943.53
2016-11-02T09:49:01.662Z,942.67
2016-11-02T09:50:01.675Z,940.58
2016-11-02T09:51:01.647Z,939.28
2016-11-02T09:52:01.618Z,937.9
2016-11-02T09:53:01.640Z,936.58
2016-11-02T09:54:01.636Z,935.14
2016-11-02T09:55:01.626Z,933.8
2016-11-02T09:56:01.659Z,934.21
2016-11-02T09:57:01.666Z,935.95
2016-11-02T09:58:01.632Z,937.7
2016-11-02T09:59:01.631Z,938.79
2016-11-02T10:00:01.664Z,938.78
2016-11-02T10:01:01.638Z,937.82
2016-11-02T10:02:01.637Z,938.1
2016-11-02T10:03:01.629Z,938.21
2016-11-02T10:04:01.640Z,938.83
2016-11-02T10:05:01.626Z,940.28
2016-11-02T10:06:01.647Z,941.33
2016-11-02T10:07:01.670Z,943.24
2016-11-02T10:08:02.213Z,944.52
2016-11-02T10:09:01.634Z,946.11
2016-11-02T10:10:01.635Z,947.37
2016-11-02T10:11:01.683Z,947.58
2016-11-02T10:12:01.639Z,949.17
2016-11-02T10:13:01.656Z,951.54
2016-11-02T10:14:01.647Z,954.02
2016-11-02T10:15:01.654Z,955.89
2016-11-02T10:16:01.687Z,957.58
2016-11-02T10:17:01.681Z,958.27
2016-11-02T10:18:01.653Z,958.25
2016-11-02T10:19:01.652Z,958.74
2016-11-02T10:20:01.654Z,960.39
2016-11-02T10:21:01.651Z,963.29
2016-11-02T10:22:01.657Z,965.6
2016-11-02T10:23:01.689Z,969.94
2016-11-02T10:24:01.681Z,975.2
2016-11-02T10:25:01.673Z,980.24
2016-11-02T10:26:01.714Z,990.09
2016-11-02T10:27:01.654Z,1000.24
2016-11-02T10:28:01.667Z,1004.79
2016-11-02T10:29:01.683Z,1009.27
2016-11-02T10:30:01.655Z,1013.83
2016-11-02T10:31:01.702Z,1016.62
2016-11-02T10:32:01.668Z,1018.46
2016-11-02T10:33:01.692Z,1019.47
2016-11-02T10:34:01.677Z,1022.49
2016-11-02T10:35:01.674Z,1024.36
2016-11-02T10:36:01.676Z,1028.33
2016-11-02T10:37:01.699Z,1032.09
2016-11-02T10:38:01.684Z,1035.24
2016-11-02T10:39:01.651Z,1035.29
2016-11-02T10:40:01.667Z,1034.7
2016-11-02T10:41:01.689Z,1035.12
2016-11-02T10:42:01.668Z,1036.18
2016-11-02T10:43:01.670Z,1037.73
2016-11-02T10:44:01.677Z,1039.21
2016-11-02T10:45:01.708Z,1039.1
2016-11-02T10:46:01.676Z,1037.25
2016-11-02T10:47:01.724Z,1035.11
2016-11-02T10:48:01.689Z,1033.83
2016-11-02T10:49:01.696Z,1032.49
2016-11-02T10:50:01.684Z,1031.65
2016-11-02T10:51:01.684Z,1030.64
2016-11-02T10:52:01.681Z,1030.06
2016-11-02T10:53:01.669Z,1030.6
2016-11-02T10:54:01.731Z,1034.44
2016-11-02T10:55:01.710Z,1038.88
2016-11-02T10:57:01.673Z,1046.33
2016-11-02T10:58:01.715Z,1046.49
2016-11-02T10:59:01.674Z,1045.15
2016-11-02T11:00:01.696Z,1043.39
2016-11-02T11:01:01.687Z,1041.6
2016-11-02T11:02:01.688Z,1040
2016-11-02T11:03:01.687Z,1037.49
2016-11-02T11:04:01.686Z,1034.37
2016-11-02T11:05:01.712Z,1031.67
2016-11-02T11:06:01.720Z,1030.51
2016-11-02T11:07:01.706Z,1030.81
2016-11-02T11:08:01.694Z,1031.83
2016-11-02T11:09:01.675Z,1033.9
2016-11-02T11:10:01.707Z,1037.25
2016-11-02T11:11:01.699Z,1040.8
2016-11-02T11:12:01.712Z,1041.84
2016-11-02T11:13:01.698Z,1042.28
2016-11-02T11:14:01.692Z,1043.76
2016-11-02T11:15:01.698Z,1044.8
2016-11-02T11:16:01.717Z,1044.41
2016-11-02T11:17:01.691Z,1042.7
2016-11-02T11:18:01.715Z,1041.68
2016-11-02T11:19:01.708Z,1041.72
2016-11-02T11:20:01.730Z,1041.9
2016-11-02T11:21:01.801Z,1042.45
2016-11-02T11:22:01.694Z,1044.84
2016-11-02T11:23:01.701Z,1048.13
2016-11-02T11:24:01.703Z,1052.07
2016-11-02T11:25:01.698Z,1055.14
2016-11-02T11:26:01.723Z,1058.47
2016-11-02T11:27:01.723Z,1061.14
2016-11-02T11:28:01.700Z,1062.07
2016-11-02T11:29:01.711Z,1061.96
2016-11-02T11:30:01.703Z,1061.8
2016-11-02T11:31:01.719Z,1062.85
2016-11-02T11:32:01.730Z,1063.18
2016-11-02T11:33:01.707Z,1063.1
2016-11-02T11:34:01.694Z,1061.99
2016-11-02T11:35:01.700Z,1060.38
2016-11-02T11:36:01.719Z,1059.19
2016-11-02T11:37:01.711Z,1059.27
2016-11-02T11:38:01.710Z,1059.35
2016-11-02T11:39:01.720Z,1060.89
2016-11-02T11:40:01.705Z,1061.39
2016-11-02T11:41:01.721Z,1060.73
2016-11-02T11:42:01.710Z,1059.58
2016-11-02T11:43:01.743Z,1058.73
2016-11-02T11:44:01.733Z,1058.19
2016-11-02T11:45:01.730Z,1058.52
2016-11-02T11:46:01.742Z,1060.93
2016-11-02T11:47:01.708Z,1063.48
2016-11-02T11:48:01.724Z,1064.65
2016-11-02T11:49:01.727Z,1063.65
2016-11-02T11:50:01.721Z,1062.3
2016-11-02T11:51:01.740Z,1060.84
2016-11-02T11:52:01.726Z,1058.01
2016-11-02T11:53:01.771Z,1055.26
2016-11-02T11:54:01.730Z,1053.5
2016-11-02T11:55:01.720Z,1051.6
2016-11-02T11:56:01.762Z,1051.74
2016-11-02T11:57:01.723Z,1052.75
2016-11-02T11:58:01.746Z,1053.53
2016-11-02T11:59:01.717Z,1053.42
2016-11-02T12:00:01.791Z,1051.63
2016-11-02T12:01:03.024Z,1049.59
2016-11-02T12:02:01.709Z,1047.85
2016-11-02T12:03:01.724Z,1046.53
2016-11-02T12:04:01.752Z,1045.73
2016-11-02T12:05:01.737Z,1047.28
2016-11-02T12:06:01.752Z,1048.16
2016-11-02T12:07:01.743Z,1051.64
2016-11-02T12:08:01.756Z,1054.77
2016-11-02T12:09:01.742Z,1057.09
2016-11-02T12:10:01.748Z,1059
2016-11-02T12:11:01.758Z,1061
2016-11-02T12:12:01.749Z,1062.93
2016-11-02T12:13:01.772Z,1064.77
2016-11-02T12:14:01.763Z,1066.56
2016-11-02T12:15:01.750Z,1067.7
2016-11-02T12:16:01.954Z,1069.05
2016-11-02T12:17:01.742Z,1070.3
2016-11-02T12:18:01.734Z,1072.57
2016-11-02T12:19:01.743Z,1074.61
2016-11-02T12:20:01.748Z,1076.66
2016-11-02T12:21:01.767Z,1079.39
2016-11-02T12:22:01.740Z,1080.95
2016-11-02T12:23:01.753Z,1081.27
2016-11-02T12:24:01.789Z,1080.52
2016-11-02T12:25:01.752Z,1079.66
2016-11-02T12:26:01.783Z,1078.5
2016-11-02T12:27:01.792Z,1078.61
2016-11-02T12:28:01.769Z,1078.74
2016-11-02T12:29:01.785Z,1078.35
2016-11-02T12:30:01.786Z,1076.74
2016-11-02T12:31:02.182Z,1074.3
2016-11-02T12:32:01.897Z,1071.99